Time;durP1;ratioP1;P1;durP2;ratioP2;P2;SDS_P1;SDS_P2;PMS_P1;PMS_P2;Temp;Humidity;BMP_temperature;BMP_pressure;BME280_temperature;BME280_humidity;BME280_pressure;Samples;Min_cycle;Max_cycle;Signal;HPM_P1;HPM_P2
2021/07/17 00:00:16;;;;;;;12.50;10.10;;;;;;;16.67;100.00;96672.59;5030923;28;20109;-77
2021/07/17 00:02:42;;;;;;;13.55;10.10;;;;;;;16.63;100.00;96674.81;5032167;28;20103;-77
2021/07/17 00:05:13;;;;;;;12.85;10.73;;;;;;;16.61;100.00;96671.50;5033648;28;20033;-78
2021/07/17 00:07:40;;;;;;;12.40;10.90;;;;;;;16.60;100.00;96675.19;5034738;28;20065;-77
2021/07/17 00:10:29;;;;;;;13.60;10.68;;;;;;;16.62;100.00;96686.41;5051477;28;20474;-78
2021/07/17 00:12:54;;;;;;;12.15;10.25;;;;;;;16.66;100.00;96685.03;5045465;28;20100;-78
2021/07/17 00:15:23;;;;;;;13.27;10.75;;;;;;;16.57;100.00;96691.47;5047970;28;20099;-78
2021/07/17 00:17:49;;;;;;;12.48;10.73;;;;;;;16.54;100.00;96683.88;5048797;28;20033;-78
2021/07/17 00:20:17;;;;;;;12.52;10.85;;;;;;;16.54;100.00;96689.19;5046083;28;20096;-78
2021/07/17 00:22:43;;;;;;;12.52;11.23;;;;;;;16.51;100.00;96686.91;5051741;28;20036;-78
2021/07/17 00:25:11;;;;;;;11.43;10.20;;;;;;;16.52;100.00;96685.06;5039684;28;20165;-77
2021/07/17 00:27:37;;;;;;;12.23;10.43;;;;;;;16.47;100.00;96693.59;5055900;28;20067;-78
2021/07/17 00:30:03;;;;;;;15.57;10.93;;;;;;;16.51;100.00;96694.88;5048870;28;20454;-78
2021/07/17 00:32:29;;;;;;;14.25;11.52;;;;;;;16.48;100.00;96682.78;5034960;28;20111;-78
2021/07/17 00:34:55;;;;;;;15.52;10.38;;;;;;;16.53;100.00;96684.06;5037181;28;20430;-78
2021/07/17 00:37:20;;;;;;;11.90;10.20;;;;;;;16.53;100.00;96676.91;5041045;28;20150;-77
2021/07/17 00:39:46;;;;;;;15.48;10.68;;;;;;;16.55;100.00;96680.22;5074559;28;20145;-78
2021/07/17 00:42:12;;;;;;;20.30;10.30;;;;;;;16.59;100.00;96681.47;5073287;28;20032;-78
2021/07/17 00:44:37;;;;;;;13.10;10.07;;;;;;;16.65;100.00;96694.03;5032264;28;20393;-78
2021/07/17 00:47:05;;;;;;;13.25;10.70;;;;;;;16.57;100.00;96683.50;5059174;28;20786;-78
2021/07/17 00:49:32;;;;;;;14.25;11.60;;;;;;;16.65;100.00;96688.72;5034028;28;20466;-78
2021/07/17 00:51:57;;;;;;;13.02;11.50;;;;;;;16.52;100.00;96688.53;5062788;28;20032;-78
2021/07/17 00:54:27;;;;;;;14.15;12.65;;;;;;;16.63;100.00;96689.91;5050469;28;20046;-78
2021/07/17 00:56:54;;;;;;;13.40;10.50;;;;;;;16.65;100.00;96686.06;5034827;28;20031;-78
2021/07/17 00:59:23;;;;;;;14.18;10.95;;;;;;;16.55;100.00;96690.84;5042885;28;20031;-77
2021/07/17 01:01:53;;;;;;;18.35;12.13;;;;;;;16.51;100.00;96684.25;5054310;28;20386;-78
2021/07/17 01:04:22;;;;;;;12.70;10.35;;;;;;;16.51;100.00;96681.59;5064520;28;20028;-77
2021/07/17 01:06:48;;;;;;;13.90;11.38;;;;;;;16.55;100.00;96692.66;5041904;28;20043;-78
2021/07/17 01:09:15;;;;;;;13.63;11.25;;;;;;;16.63;100.00;96682.78;5069664;28;20028;-79
2021/07/17 01:11:40;;;;;;;15.95;10.93;;;;;;;16.62;100.00;96682.94;5060581;28;20040;-77
2021/07/17 01:14:06;;;;;;;16.08;11.68;;;;;;;16.54;100.00;96675.09;5047963;28;20029;-78
2021/07/17 01:16:33;;;;;;;13.65;10.65;;;;;;;16.48;100.00;96679.31;5058554;28;20029;-78
2021/07/17 01:18:59;;;;;;;14.00;12.40;;;;;;;16.46;100.00;96689.28;5044506;28;20567;-77
2021/07/17 01:21:27;;;;;;;14.45;11.27;;;;;;;16.49;100.00;96691.56;5060351;28;20107;-78
2021/07/17 01:23:53;;;;;;;13.10;10.45;;;;;;;16.54;100.00;96697.16;5049661;28;20027;-78
2021/07/17 01:26:19;;;;;;;13.27;11.68;;;;;;;16.53;100.00;96695.50;5060400;28;20037;-77
2021/07/17 01:28:45;;;;;;;19.60;12.00;;;;;;;16.50;100.00;96698.53;5066306;28;20024;-78
2021/07/17 01:31:12;;;;;;;14.60;11.35;;;;;;;16.41;100.00;96705.78;5057764;28;20028;-78
2021/07/17 01:33:39;;;;;;;14.63;12.13;;;;;;;16.33;100.00;96700.56;5040990;28;20031;-77
2021/07/17 01:36:05;;;;;;;15.27;12.05;;;;;;;16.34;100.00;96704.03;5051068;28;20032;-77
2021/07/17 01:38:31;;;;;;;14.77;12.45;;;;;;;16.31;100.00;96697.25;5035992;28;20477;-78
2021/07/17 01:40:57;;;;;;;15.43;13.20;;;;;;;16.34;100.00;96690.78;5042990;28;20040;-78
2021/07/17 01:43:22;;;;;;;14.80;12.93;;;;;;;16.35;100.00;96684.44;5040516;28;20044;-78
2021/07/17 01:45:48;;;;;;;18.65;13.82;;;;;;;16.34;100.00;96682.81;5051901;28;20025;-77
2021/07/17 01:48:15;;;;;;;17.52;12.90;;;;;;;16.31;100.00;96680.53;5061222;28;20085;-78
2021/07/17 01:50:43;;;;;;;15.45;12.30;;;;;;;16.36;100.00;96686.91;5054822;28;20114;-78
2021/07/17 01:53:12;;;;;;;16.38;14.02;;;;;;;16.19;100.00;96682.78;5057587;28;20028;-78
2021/07/17 01:55:38;;;;;;;17.88;13.68;;;;;;;16.24;100.00;96673.28;5049279;28;20024;-78
2021/07/17 01:58:04;;;;;;;15.95;13.23;;;;;;;16.33;100.00;96667.88;5042159;28;20536;-78
2021/07/17 02:00:30;;;;;;;15.43;12.23;;;;;;;16.31;100.00;96670.72;5057117;28;20032;-78
2021/07/17 02:02:56;;;;;;;18.10;13.63;;;;;;;16.32;100.00;96666.22;5061224;28;20044;-77
2021/07/17 02:05:24;;;;;;;15.85;13.60;;;;;;;16.30;100.00;96662.94;5052641;28;20043;-77
2021/07/17 02:07:50;;;;;;;18.65;13.80;;;;;;;16.23;100.00;96658.38;5035765;28;20614;-77
2021/07/17 02:10:22;;;;;;;18.45;14.77;;;;;;;16.17;100.00;96655.66;5047996;28;20020;-78
2021/07/17 02:13:06;;;;;;;16.88;13.43;;;;;;;16.24;100.00;96656.53;5043713;28;20733;-77
2021/07/17 02:15:35;;;;;;;17.40;13.35;;;;;;;16.16;100.00;96657.47;5033499;28;20639;-77
2021/07/17 02:18:02;;;;;;;17.08;14.00;;;;;;;16.14;100.00;96654.16;5050839;28;20032;-77
2021/07/17 02:20:31;;;;;;;20.10;15.60;;;;;;;16.06;100.00;96650.78;5048192;28;20481;-78
2021/07/17 02:22:57;;;;;;;17.73;14.68;;;;;;;15.99;100.00;96656.81;5045146;28;20040;-77
2021/07/17 02:25:22;;;;;;;20.95;15.85;;;;;;;16.08;100.00;96656.75;5033984;28;20039;-77
2021/07/17 02:27:48;;;;;;;20.63;15.35;;;;;;;16.04;100.00;96656.28;5053182;28;20021;-78
2021/07/17 02:30:14;;;;;;;20.88;14.63;;;;;;;16.06;100.00;96648.94;5027786;28;20045;-78
2021/07/17 02:32:40;;;;;;;19.48;14.65;;;;;;;16.09;100.00;96645.94;5046948;28;20086;-77
2021/07/17 02:35:06;;;;;;;18.77;14.82;;;;;;;16.16;100.00;96649.50;5027532;28;20029;-77
2021/07/17 02:37:32;;;;;;;19.42;15.13;;;;;;;16.19;100.00;96650.97;5054432;28;20029;-77
2021/07/17 02:39:58;;;;;;;17.95;14.02;;;;;;;16.19;100.00;96649.13;5033845;28;20508;-77
2021/07/17 02:42:23;;;;;;;24.13;17.45;;;;;;;16.09;100.00;96645.94;5049926;28;20031;-77
2021/07/17 02:44:49;;;;;;;22.65;16.95;;;;;;;16.10;100.00;96647.59;5075520;28;20025;-76
2021/07/17 02:47:16;;;;;;;20.33;14.93;;;;;;;16.12;100.00;96653.53;5061144;28;20385;-77
2021/07/17 02:49:42;;;;;;;25.20;17.38;;;;;;;16.16;100.00;96652.16;5050186;28;20115;-78
2021/07/17 02:52:08;;;;;;;21.33;17.00;;;;;;;16.17;100.00;96651.16;5041330;28;20491;-77
2021/07/17 02:54:34;;;;;;;21.02;16.98;;;;;;;16.12;100.00;96653.53;5045866;28;20048;-77
2021/07/17 02:56:59;;;;;;;22.13;17.02;;;;;;;16.16;100.00;96651.31;5053946;28;20028;-77
2021/07/17 02:59:25;;;;;;;22.73;17.45;;;;;;;16.09;100.00;96651.22;5056643;28;20039;-77
2021/07/17 03:01:51;;;;;;;24.60;17.45;;;;;;;16.13;100.00;96663.16;5035924;28;20021;-77
2021/07/17 03:04:16;;;;;;;21.48;16.38;;;;;;;16.19;100.00;96658.91;5038055;28;20036;-78
2021/07/17 03:06:42;;;;;;;21.52;16.52;;;;;;;16.20;100.00;96664.06;5039102;28;20017;-78
2021/07/17 03:09:08;;;;;;;24.13;17.88;;;;;;;16.24;100.00;96660.03;5041067;28;20063;-78
2021/07/17 03:11:34;;;;;;;21.40;16.52;;;;;;;16.23;100.00;96663.69;5044805;28;20031;-78
2021/07/17 03:14:01;;;;;;;22.08;16.60;;;;;;;16.24;100.00;96659.19;5043472;28;20025;-78
2021/07/17 03:16:29;;;;;;;24.58;17.15;;;;;;;16.22;100.00;96658.56;5042457;28;20035;-79
2021/07/17 03:18:55;;;;;;;24.13;18.65;;;;;;;16.19;100.00;96662.38;5039826;28;20126;-77
2021/07/17 03:21:20;;;;;;;27.20;18.05;;;;;;;16.17;100.00;96653.81;5043885;28;20028;-78
2021/07/17 03:23:47;;;;;;;24.92;19.80;;;;;;;16.24;100.00;96651.25;5048387;28;20035;-78
2021/07/17 03:26:13;;;;;;;25.30;19.33;;;;;;;16.20;100.00;96660.59;5049918;28;20028;-78
2021/07/17 03:28:39;;;;;;;27.20;18.40;;;;;;;16.12;100.00;96666.78;5042436;28;20098;-78
2021/07/17 03:31:05;;;;;;;30.65;21.33;;;;;;;16.12;100.00;96658.81;5037154;28;20036;-78
2021/07/17 03:33:31;;;;;;;24.23;18.67;;;;;;;16.13;100.00;96664.94;5030381;28;20029;-78
2021/07/17 03:35:59;;;;;;;25.35;19.65;;;;;;;16.10;100.00;96668.00;5058208;28;20047;-78
2021/07/17 03:38:25;;;;;;;24.70;18.50;;;;;;;16.00;100.00;96670.91;5058044;28;20124;-78
2021/07/17 03:40:52;;;;;;;26.83;20.77;;;;;;;16.06;100.00;96662.22;5049733;28;20102;-77
2021/07/17 03:43:17;;;;;;;25.75;19.85;;;;;;;16.06;100.00;96664.84;5044369;28;20032;-78
2021/07/17 03:45:43;;;;;;;35.25;21.25;;;;;;;16.06;100.00;96664.84;5066108;28;20504;-78
2021/07/17 03:48:09;;;;;;;29.75;19.58;;;;;;;16.05;100.00;96665.88;5051861;28;20041;-78
2021/07/17 03:50:35;;;;;;;27.63;20.90;;;;;;;16.06;100.00;96661.38;5035806;28;20039;-77
2021/07/17 03:53:01;;;;;;;29.42;20.70;;;;;;;16.04;100.00;96669.53;5063080;28;20111;-78
2021/07/17 03:55:27;;;;;;;28.98;21.17;;;;;;;16.08;100.00;96673.47;5047082;28;20023;-77
2021/07/17 03:57:53;;;;;;;31.63;20.95;;;;;;;16.10;100.00;96678.63;5046074;28;20546;-77
2021/07/17 04:00:19;;;;;;;27.92;19.75;;;;;;;16.06;100.00;96680.78;5058483;28;20081;-78
2021/07/17 04:02:45;;;;;;;28.65;19.60;;;;;;;16.11;100.00;96686.38;5033254;28;20032;-77
2021/07/17 04:05:13;;;;;;;28.50;20.42;;;;;;;16.10;100.00;96687.38;5070415;28;20027;-78
2021/07/17 04:07:40;;;;;;;28.20;20.90;;;;;;;16.09;100.00;96696.34;5046554;28;20101;-77
2021/07/17 04:10:08;;;;;;;29.55;21.17;;;;;;;16.08;100.00;96694.69;5034591;28;20040;-79
2021/07/17 04:12:33;;;;;;;30.45;20.10;;;;;;;16.09;100.00;96688.38;5046046;28;20036;-77
2021/07/17 04:14:59;;;;;;;35.00;22.13;;;;;;;16.06;100.00;96688.75;5050215;28;20048;-77
2021/07/17 04:17:26;;;;;;;36.80;22.38;;;;;;;16.06;100.00;96690.56;5031030;28;20089;-77
2021/07/17 04:19:52;;;;;;;32.83;22.55;;;;;;;16.05;100.00;96700.38;5031452;28;20032;-77
2021/07/17 04:22:19;;;;;;;28.02;20.88;;;;;;;16.11;100.00;96699.63;5030828;28;20119;-78
2021/07/17 04:24:45;;;;;;;30.17;22.00;;;;;;;16.10;100.00;96698.00;5037952;28;20034;-78
2021/07/17 04:27:11;;;;;;;39.17;23.63;;;;;;;16.01;100.00;96710.53;5036355;28;20032;-78
2021/07/17 04:29:36;;;;;;;34.72;21.92;;;;;;;16.00;100.00;96711.53;5048806;28;20055;-77
2021/07/17 04:32:03;;;;;;;36.22;22.92;;;;;;;16.04;100.00;96706.69;5036998;28;20869;-78
2021/07/17 04:34:29;;;;;;;30.48;22.42;;;;;;;16.07;100.00;96708.16;5038271;28;20021;-77
2021/07/17 04:36:55;;;;;;;31.52;22.52;;;;;;;16.01;100.00;96707.03;5034905;28;20036;-78
2021/07/17 04:39:24;;;;;;;30.88;21.13;;;;;;;16.05;100.00;96707.50;5028276;28;20024;-78
2021/07/17 04:41:50;;;;;;;34.55;22.80;;;;;;;15.98;100.00;96708.22;5038047;28;20587;-77
2021/07/17 04:44:16;;;;;;;33.20;21.75;;;;;;;16.08;100.00;96705.31;5035917;28;20457;-78
2021/07/17 04:46:42;;;;;;;31.13;21.90;;;;;;;16.12;100.00;96708.41;5058216;28;20098;-78
2021/07/17 04:49:07;;;;;;;34.92;22.92;;;;;;;16.13;100.00;96708.25;5041273;28;20024;-77
2021/07/17 04:51:33;;;;;;;36.13;23.33;;;;;;;16.11;100.00;96696.16;5029285;28;20097;-78
2021/07/17 04:53:59;;;;;;;36.88;22.65;;;;;;;16.10;100.00;96687.38;5069471;28;20025;-77
2021/07/17 04:56:25;;;;;;;37.45;23.13;;;;;;;16.20;100.00;96685.28;5053877;28;20043;-78
2021/07/17 04:58:50;;;;;;;39.70;24.52;;;;;;;16.05;100.00;96687.09;5034362;28;20027;-77
2021/07/17 05:01:18;;;;;;;37.35;24.42;;;;;;;15.98;100.00;96687.00;5037383;28;20032;-79
2021/07/17 05:03:44;;;;;;;43.60;26.20;;;;;;;15.99;100.00;96682.50;5037116;28;20044;-78
2021/07/17 05:06:10;;;;;;;37.83;25.83;;;;;;;16.03;100.00;96683.81;5039207;28;20032;-77
2021/07/17 05:08:36;;;;;;;37.22;24.70;;;;;;;16.02;100.00;96684.81;5053375;28;20028;-78
2021/07/17 05:11:02;;;;;;;36.83;22.15;;;;;;;15.98;100.00;96694.16;5038508;28;20096;-78
2021/07/17 05:13:28;;;;;;;35.00;23.25;;;;;;;16.05;100.00;96692.41;5040032;28;20119;-78
2021/07/17 05:15:54;;;;;;;37.72;24.02;;;;;;;16.08;100.00;96686.75;5038980;28;20071;-79
2021/07/17 05:18:21;;;;;;;31.63;22.80;;;;;;;16.07;100.00;96690.41;5033784;28;20024;-78
2021/07/17 05:20:47;;;;;;;37.92;24.70;;;;;;;16.15;100.00;96679.69;5036446;28;20508;-79
2021/07/17 05:23:16;;;;;;;33.78;22.77;;;;;;;16.20;100.00;96690.59;5053469;28;20036;-79
2021/07/17 05:25:46;;;;;;;31.65;22.13;;;;;;;16.24;100.00;96691.88;5059121;28;20482;-79
2021/07/17 05:28:12;;;;;;;34.42;22.33;;;;;;;16.15;100.00;96695.59;5033967;28;20107;-79
2021/07/17 05:30:38;;;;;;;39.30;25.00;;;;;;;16.25;100.00;96692.69;5035888;28;20087;-79
2021/07/17 05:33:04;;;;;;;39.22;23.13;;;;;;;16.20;100.00;96695.91;5052060;28;20032;-79
2021/07/17 05:35:30;;;;;;;34.55;21.88;;;;;;;16.22;100.00;96704.47;5043962;28;20037;-79
2021/07/17 05:37:59;;;;;;;36.85;23.15;;;;;;;16.25;100.00;96695.34;5036290;28;20539;-79
2021/07/17 05:40:25;;;;;;;35.22;22.02;;;;;;;16.22;100.00;96708.97;5054196;28;20447;-79
2021/07/17 05:42:51;;;;;;;34.17;23.10;;;;;;;16.24;100.00;96705.13;5035086;28;20020;-79
2021/07/17 05:45:17;;;;;;;35.35;23.90;;;;;;;16.23;100.00;96713.25;5057768;28;20660;-79
2021/07/17 05:47:42;;;;;;;35.08;22.75;;;;;;;16.26;100.00;96721.72;5059126;28;20035;-79
2021/07/17 05:50:09;;;;;;;37.38;23.02;;;;;;;16.31;100.00;96728.28;5045301;28;20111;-79
2021/07/17 05:52:35;;;;;;;33.83;22.45;;;;;;;16.24;100.00;96723.72;5051024;28;20032;-79
2021/07/17 05:55:00;;;;;;;36.40;22.23;;;;;;;16.29;100.00;96720.50;5033396;28;20040;-79
2021/07/17 05:57:26;;;;;;;37.45;24.13;;;;;;;16.19;100.00;96720.78;5040252;28;20060;-78
2021/07/17 05:59:52;;;;;;;46.53;27.58;;;;;;;16.15;100.00;96719.50;5044454;28;20097;-80
2021/07/17 06:02:17;;;;;;;37.20;24.27;;;;;;;16.22;100.00;96720.41;5048438;28;20021;-78
2021/07/17 06:04:44;;;;;;;35.22;23.33;;;;;;;16.28;100.00;96718.84;5053350;28;20029;-79
2021/07/17 06:07:11;;;;;;;38.00;23.77;;;;;;;16.25;100.00;96712.09;5045911;28;20025;-78
2021/07/17 06:09:41;;;;;;;37.80;22.65;;;;;;;16.32;100.00;96724.63;5037098;28;20033;-78
2021/07/17 06:12:08;;;;;;;38.83;23.70;;;;;;;16.35;100.00;96724.25;5052332;28;20028;-79
2021/07/17 06:14:36;;;;;;;35.80;23.35;;;;;;;16.29;100.00;96725.00;5044450;28;20541;-79
2021/07/17 06:17:02;;;;;;;34.53;22.50;;;;;;;16.18;100.00;96719.13;5046839;28;20339;-79
2021/07/17 06:19:28;;;;;;;37.22;24.35;;;;;;;16.26;100.00;96720.84;5061778;28;20032;-79
2021/07/17 06:21:54;;;;;;;39.20;23.38;;;;;;;16.22;100.00;96719.59;5037372;28;20504;-79
2021/07/17 06:24:19;;;;;;;35.17;21.63;;;;;;;16.19;100.00;96730.56;5051774;28;20370;-79
2021/07/17 06:26:45;;;;;;;35.88;23.48;;;;;;;16.24;100.00;96722.91;5056629;28;20035;-79
2021/07/17 06:29:11;;;;;;;36.42;24.98;;;;;;;16.36;100.00;96720.59;5050730;28;20512;-79
2021/07/17 06:31:36;;;;;;;42.78;28.02;;;;;;;16.45;100.00;96720.31;5034223;28;20117;-79
2021/07/17 06:34:04;;;;;;;34.88;23.15;;;;;;;16.50;100.00;96727.75;5058747;28;20024;-79
2021/07/17 06:36:31;;;;;;;30.33;20.23;;;;;;;16.55;100.00;96719.22;5065582;28;20030;-79
2021/07/17 06:38:56;;;;;;;37.70;21.83;;;;;;;16.57;100.00;96723.34;5058296;28;20147;-79
2021/07/17 06:41:22;;;;;;;32.08;21.00;;;;;;;16.64;100.00;96718.94;5067650;28;20090;-79
2021/07/17 06:43:48;;;;;;;29.75;21.02;;;;;;;16.67;100.00;96720.41;5064943;28;20028;-79
2021/07/17 06:46:14;;;;;;;31.90;22.17;;;;;;;16.61;100.00;96714.00;5051535;28;20024;-79
2021/07/17 06:48:40;;;;;;;28.45;19.85;;;;;;;16.79;100.00;96723.44;5040569;28;20025;-79
2021/07/17 06:51:08;;;;;;;35.40;20.95;;;;;;;16.92;100.00;96720.91;5056255;28;20024;-79
2021/07/17 06:53:35;;;;;;;28.65;21.00;;;;;;;16.88;100.00;96719.66;5049391;28;20074;-79
2021/07/17 06:56:01;;;;;;;33.70;20.65;;;;;;;16.77;100.00;96728.09;5053038;28;20110;-79
2021/07/17 06:58:27;;;;;;;30.42;21.95;;;;;;;16.84;100.00;96739.63;5042854;28;20561;-79
2021/07/17 07:00:53;;;;;;;32.22;19.67;;;;;;;16.76;100.00;96734.41;5055209;28;20063;-78
2021/07/17 07:03:19;;;;;;;33.45;21.70;;;;;;;16.76;100.00;96742.38;5052859;28;20114;-79
2021/07/17 07:05:45;;;;;;;30.08;20.60;;;;;;;16.80;100.00;96735.69;5038591;28;20029;-79
2021/07/17 07:08:10;;;;;;;36.15;21.30;;;;;;;16.81;100.00;96740.00;5039573;28;20103;-79
2021/07/17 07:10:37;;;;;;;32.35;22.15;;;;;;;16.86;100.00;96743.72;5044769;28;20127;-79
2021/07/17 07:13:14;;;;;;;39.80;24.95;;;;;;;16.85;100.00;96749.25;5041670;28;20294;-79
2021/07/17 07:15:40;;;;;;;37.78;21.17;;;;;;;16.91;100.00;96740.53;5034188;28;20013;-79
2021/07/17 07:18:06;;;;;;;35.53;22.48;;;;;;;16.88;100.00;96747.03;5043857;28;20039;-80
2021/07/17 07:20:32;;;;;;;35.60;23.48;;;;;;;16.93;100.00;96744.66;5060052;28;20104;-78
2021/07/17 07:22:59;;;;;;;37.33;23.38;;;;;;;16.92;100.00;96745.66;5056307;28;20032;-78
2021/07/17 07:25:27;;;;;;;36.72;23.63;;;;;;;17.01;100.00;96750.88;5051734;28;20039;-79
2021/07/17 07:27:52;;;;;;;40.40;25.33;;;;;;;16.94;100.00;96748.97;5056974;28;20034;-79
2021/07/17 07:30:19;;;;;;;46.88;35.50;;;;;;;17.04;100.00;96755.81;5056102;28;20025;-79
2021/07/17 07:32:44;;;;;;;34.45;26.02;;;;;;;16.92;100.00;96748.31;5066378;28;20393;-79
2021/07/17 07:35:10;;;;;;;42.03;30.80;;;;;;;16.93;100.00;96739.34;5061257;28;20028;-79
2021/07/17 07:37:36;;;;;;;40.42;29.65;;;;;;;16.98;100.00;96741.44;5061495;28;20541;-80
2021/07/17 07:40:03;;;;;;;35.15;23.77;;;;;;;17.03;100.00;96741.69;5042085;28;20423;-79
2021/07/17 07:42:29;;;;;;;35.15;24.58;;;;;;;17.13;100.00;96747.53;5043533;28;20032;-79
2021/07/17 07:44:55;;;;;;;36.90;24.52;;;;;;;17.00;100.00;96743.88;5044816;28;20032;-79
2021/07/17 07:47:23;;;;;;;34.83;22.77;;;;;;;16.89;100.00;96745.19;5057559;28;20056;-79
2021/07/17 07:49:49;;;;;;;31.88;24.60;;;;;;;16.96;100.00;96743.44;5059156;28;20025;-79
2021/07/17 07:52:15;;;;;;;31.67;23.00;;;;;;;17.10;100.00;96750.56;5039515;28;20027;-76
2021/07/17 07:54:40;;;;;;;32.50;22.48;;;;;;;17.07;100.00;96753.59;5042767;28;20025;-79
2021/07/17 07:57:06;;;;;;;31.00;18.95;;;;;;;17.29;100.00;96756.28;5043847;28;20024;-78
2021/07/17 07:59:33;;;;;;;29.63;22.10;;;;;;;17.14;100.00;96757.16;5036829;28;20056;-79
2021/07/17 08:01:59;;;;;;;27.20;20.38;;;;;;;17.08;100.00;96759.75;5043727;28;20036;-78
2021/07/17 08:04:25;;;;;;;30.83;20.48;;;;;;;17.03;100.00;96754.97;5042967;28;20036;-79
2021/07/17 08:06:50;;;;;;;30.17;20.55;;;;;;;17.14;100.00;96757.16;5071406;28;20025;-81
2021/07/17 08:09:17;;;;;;;28.48;20.38;;;;;;;17.04;100.00;96750.50;5044726;28;20063;-78
2021/07/17 08:11:42;;;;;;;26.38;18.95;;;;;;;17.07;100.00;96752.75;5045721;28;20119;-78
2021/07/17 08:14:08;;;;;;;29.05;20.88;;;;;;;17.13;100.00;96754.66;5058701;28;20059;-79
2021/07/17 08:16:34;;;;;;;29.50;19.80;;;;;;;17.17;100.00;96755.97;5061551;28;20028;-79
2021/07/17 08:19:00;;;;;;;25.92;19.33;;;;;;;17.06;100.00;96757.25;5051223;28;20037;-79
2021/07/17 08:21:26;;;;;;;27.38;19.65;;;;;;;17.07;100.00;96763.38;5056937;28;20028;-79
2021/07/17 08:23:52;;;;;;;30.15;19.65;;;;;;;17.04;100.00;96753.16;5057688;28;20046;-79
2021/07/17 08:26:18;;;;;;;28.45;19.30;;;;;;;17.08;100.00;96757.91;5049828;28;20434;-79
2021/07/17 08:28:45;;;;;;;29.48;20.27;;;;;;;17.16;100.00;96763.09;5064517;28;20036;-78
2021/07/17 08:31:10;;;;;;;27.67;19.05;;;;;;;17.29;100.00;96758.94;5039984;28;20016;-78
2021/07/17 08:33:37;;;;;;;30.23;19.88;;;;;;;17.19;100.00;96751.28;5055688;28;20036;-79
2021/07/17 08:36:03;;;;;;;28.45;21.15;;;;;;;17.14;100.00;96753.69;5055121;28;20035;-79
2021/07/17 08:38:28;;;;;;;30.38;20.45;;;;;;;17.24;100.00;96750.72;5051382;28;20112;-79
2021/07/17 08:40:57;;;;;;;32.97;21.83;;;;;;;17.43;100.00;96752.75;5039860;28;20189;-79
2021/07/17 08:43:23;;;;;;;27.13;19.95;;;;;;;17.47;100.00;96759.34;5046392;28;20044;-79
2021/07/17 08:45:49;;;;;;;25.98;19.02;;;;;;;17.28;100.00;96762.63;5030815;28;20033;-80
2021/07/17 08:48:18;;;;;;;28.30;19.95;;;;;;;17.55;100.00;96753.88;5064772;28;20025;-80
2021/07/17 08:50:44;;;;;;;28.98;18.33;;;;;;;17.41;100.00;96757.44;5033111;28;20017;-79
2021/07/17 08:53:11;;;;;;;29.75;18.83;;;;;;;17.30;100.00;96758.75;5039563;28;20036;-79
2021/07/17 08:55:37;;;;;;;24.55;16.25;;;;;;;17.60;100.00;96756.78;5049918;28;20032;-80
2021/07/17 08:58:03;;;;;;;25.63;17.42;;;;;;;17.74;100.00;96757.75;5049690;28;20039;-82
2021/07/17 09:00:34;;;;;;;25.40;15.57;;;;;;;17.76;100.00;96758.41;5052419;28;20055;-82
2021/07/17 09:03:06;;;;;;;20.55;15.90;;;;;;;17.73;100.00;96750.78;5051013;28;20601;-78
2021/07/17 09:05:35;;;;;;;17.48;14.20;;;;;;;17.65;100.00;96743.75;5032592;28;20052;-80
2021/07/17 09:08:03;;;;;;;20.25;13.77;;;;;;;17.39;100.00;96748.81;5037520;28;20048;-79
2021/07/17 09:10:52;;;;;;;18.65;13.07;;;;;;;17.39;100.00;96743.50;5052554;28;20142;-80
2021/07/17 09:13:27;;;;;;;18.00;13.15;;;;;;;17.67;100.00;96740.88;5043225;28;20163;-79
2021/07/17 09:16:05;;;;;;;18.20;14.55;;;;;;;17.39;100.00;96746.16;5080687;28;20129;-80
2021/07/17 09:18:44;;;;;;;15.95;12.15;;;;;;;17.68;100.00;96737.25;5053779;28;20616;-79
2021/07/17 09:21:14;;;;;;;18.95;11.90;;;;;;;17.67;100.00;96739.06;5044737;28;20064;-78
2021/07/17 09:23:45;;;;;;;26.17;17.75;;;;;;;17.65;100.00;96735.78;5039800;28;20029;-78
2021/07/17 09:26:22;;;;;;;16.83;13.48;;;;;;;17.44;100.00;96731.28;5039476;28;20028;-77
2021/07/17 09:28:59;;;;;;;15.98;12.32;;;;;;;17.44;100.00;96728.63;5039169;28;20028;-78
2021/07/17 09:31:29;;;;;;;15.95;12.25;;;;;;;17.68;100.00;96737.25;5040061;28;20547;-77
2021/07/17 09:34:12;;;;;;;22.52;15.90;;;;;;;17.75;100.00;96734.63;5055997;28;20025;-79
2021/07/17 09:36:53;;;;;;;21.52;17.92;;;;;;;17.87;100.00;96735.75;5063616;28;20090;-79
2021/07/17 09:39:21;;;;;;;15.40;11.90;;;;;;;18.08;100.00;96726.94;5033795;28;20040;-79
2021/07/17 09:42:01;;;;;;;16.63;12.57;;;;;;;18.34;100.00;96721.78;5038416;28;20028;-79
2021/07/17 09:44:30;;;;;;;14.38;10.90;;;;;;;18.52;100.00;96709.78;5052844;28;20029;-78
2021/07/17 09:46:56;;;;;;;20.80;15.32;;;;;;;18.51;100.00;96708.97;5039829;28;20070;-78
2021/07/17 09:49:24;;;;;;;23.17;19.55;;;;;;;18.79;100.00;96708.91;5031597;28;20040;-78
2021/07/17 09:52:25;;;;;;;19.17;16.17;;;;;;;18.85;100.00;96707.31;5027579;28;20104;-77
2021/07/17 09:55:16;;;;;;;22.13;19.73;;;;;;;18.78;100.00;96707.28;4930205;29;20027;-78
2021/07/17 09:57:42;;;;;;;13.27;11.85;;;;;;;18.59;100.00;96710.63;5055753;28;20509;-79
2021/07/17 10:00:11;;;;;;;16.42;12.27;;;;;;;18.65;100.00;96706.38;5063317;28;20029;-78
2021/07/17 10:02:39;;;;;;;13.38;8.68;;;;;;;18.82;100.00;96702.38;5057146;28;20085;-78
2021/07/17 10:05:09;;;;;;;13.10;10.55;;;;;;;19.16;100.00;96716.63;5051969;28;20021;-77
2021/07/17 10:07:36;;;;;;;15.55;13.90;;;;;;;19.21;100.00;96714.97;5037819;28;20042;-78
2021/07/17 10:10:05;;;;;;;20.48;17.88;;;;;;;18.76;100.00;96716.47;5043240;28;20024;-78
2021/07/17 10:12:42;;;;;;;31.30;28.02;;;;;;;18.88;100.00;96714.06;5050303;28;20049;-78
2021/07/17 10:15:15;;;;;;;25.58;22.90;;;;;;;19.07;99.04;96711.44;5041485;28;20032;-78
2021/07/17 10:17:45;;;;;;;12.27;9.88;;;;;;;19.39;98.07;96718.94;5043385;28;20143;-78
2021/07/17 10:20:15;;;;;;;14.00;11.73;;;;;;;19.61;96.02;96714.22;5051160;28;20061;-78
2021/07/17 10:22:43;;;;;;;12.02;9.80;;;;;;;19.44;97.79;96717.28;5068891;28;20109;-79
2021/07/17 10:25:13;;;;;;;14.13;12.05;;;;;;;19.20;99.99;96715.19;5038536;28;20471;-78
2021/07/17 10:27:39;;;;;;;12.15;10.38;;;;;;;19.37;98.79;96711.09;5059927;28;20081;-78
2021/07/17 10:30:10;;;;;;;16.23;11.15;;;;;;;19.08;99.73;96713.13;5062486;28;20021;-77
2021/07/17 10:32:36;;;;;;;13.23;11.35;;;;;;;19.29;98.63;96709.47;5033764;28;20056;-77
2021/07/17 10:35:03;;;;;;;19.27;17.17;;;;;;;19.34;97.48;96711.50;5054263;28;20025;-78
2021/07/17 10:37:32;;;;;;;15.50;13.05;;;;;;;19.42;98.99;96708.66;5053557;28;20071;-77
2021/07/17 10:40:14;;;;;;;20.90;14.02;;;;;;;19.45;98.71;96712.75;5055225;28;20032;-78
2021/07/17 10:42:47;;;;;;;16.02;13.30;;;;;;;19.29;98.84;96712.13;5062614;28;20055;-78
2021/07/17 10:45:33;;;;;;;;;;;;;;;18.81;99.96;96712.22;5035861;28;20055;-79
2021/07/17 10:47:59;;;;;;;19.17;13.18;;;;;;;18.77;100.00;96702.13;5061061;28;19938;-80
2021/07/17 10:50:33;;;;;;;17.77;12.95;;;;;;;18.56;100.00;96708.38;5057009;28;20063;-78
2021/07/17 10:52:59;;;;;;;21.23;15.18;;;;;;;18.60;100.00;96698.94;5052254;28;20375;-78
2021/07/17 10:55:38;;;;;;;21.13;13.70;;;;;;;18.75;100.00;96710.34;5068339;28;20025;-79
2021/07/17 10:58:12;;;;;;;19.20;15.00;;;;;;;19.02;100.00;96708.59;5042301;28;20033;-79
2021/07/17 11:00:41;;;;;;;22.15;15.13;;;;;;;19.11;100.00;96711.06;5045673;28;20768;-79
2021/07/17 11:03:32;;;;;;;27.98;17.77;;;;;;;19.18;100.00;96712.72;5038769;28;20386;-77
2021/07/17 11:06:26;;;;;;;25.58;19.75;;;;;;;19.32;98.87;96705.56;5056997;28;20121;-78
2021/07/17 11:08:53;;;;;;;23.67;16.55;;;;;;;19.82;96.16;96708.72;5050988;28;20073;-78
2021/07/17 11:11:29;;;;;;;21.50;15.55;;;;;;;20.12;94.40;96697.59;5041031;28;20021;-79